createdAt,value
2017-10-24T00:00:52.575Z,10.79
2017-10-24T00:01:58.852Z,10.66
2017-10-24T00:03:05.049Z,10.77
2017-10-24T00:04:12.423Z,10.86
2017-10-24T00:05:18.533Z,10.75
2017-10-24T00:06:24.704Z,10.65
2017-10-24T00:07:30.859Z,10.60
2017-10-24T00:08:37.069Z,10.60
2017-10-24T00:09:45.674Z,10.53
2017-10-24T00:10:55.103Z,10.48
2017-10-24T00:12:01.225Z,10.55
2017-10-24T00:13:07.248Z,10.48
2017-10-24T00:14:13.424Z,10.45
2017-10-24T00:15:19.345Z,10.42
2017-10-24T00:16:26.871Z,10.38
2017-10-24T00:17:33.141Z,10.39
2017-10-24T00:18:40.290Z,10.47
2017-10-24T00:19:46.445Z,10.65
2017-10-24T00:20:52.739Z,10.64
2017-10-24T00:21:58.902Z,10.61
2017-10-24T00:23:05.183Z,10.49
2017-10-24T00:24:11.331Z,10.52
2017-10-24T00:25:17.469Z,10.60
2017-10-24T00:26:23.627Z,10.63
2017-10-24T00:27:31.559Z,10.64
2017-10-24T00:28:37.725Z,10.72
2017-10-24T00:29:43.956Z,10.71
2017-10-24T00:30:50.064Z,10.68
2017-10-24T00:31:56.198Z,10.73
2017-10-24T00:33:02.115Z,10.67
2017-10-24T00:34:08.293Z,10.73
2017-10-24T00:35:14.096Z,10.67
2017-10-24T00:36:20.288Z,10.56
2017-10-24T00:37:26.516Z,10.38
2017-10-24T00:38:32.785Z,10.41
2017-10-24T00:39:40.007Z,10.43
2017-10-24T00:40:45.738Z,10.54
2017-10-24T00:41:51.896Z,10.51
2017-10-24T00:42:58.059Z,10.45
2017-10-24T00:44:03.491Z,10.38
2017-10-24T00:45:09.618Z,10.46
2017-10-24T00:46:15.746Z,10.55
2017-10-24T00:47:22.075Z,10.55
2017-10-24T00:48:28.230Z,10.50
2017-10-24T00:49:36.356Z,10.45
2017-10-24T00:50:42.515Z,10.44
2017-10-24T00:51:48.639Z,10.47
2017-10-24T00:52:54.784Z,10.47
2017-10-24T00:54:01.018Z,10.53
2017-10-24T00:55:06.740Z,10.58
2017-10-24T00:56:12.508Z,10.65
2017-10-24T00:57:17.726Z,10.67
2017-10-24T00:58:23.194Z,10.68
2017-10-24T00:59:28.669Z,10.68
2017-10-24T01:00:33.934Z,10.66
2017-10-24T01:01:39.500Z,10.69
2017-10-24T01:02:45.095Z,10.73
2017-10-24T01:03:51.251Z,10.75
2017-10-24T01:04:57.586Z,10.77
2017-10-24T01:06:03.722Z,10.78
2017-10-24T01:07:10.528Z,10.81
2017-10-24T01:08:16.320Z,10.81
2017-10-24T01:09:22.277Z,10.82
2017-10-24T01:10:29.341Z,10.83
2017-10-24T01:11:35.459Z,10.81
2017-10-24T01:12:41.080Z,10.84
2017-10-24T01:13:47.234Z,10.89
2017-10-24T01:14:54.697Z,10.86
2017-10-24T01:16:00.818Z,10.89
2017-10-24T01:17:07.813Z,10.93
2017-10-24T01:18:13.945Z,10.89
2017-10-24T01:19:19.380Z,10.91
2017-10-24T01:20:24.793Z,10.91
2017-10-24T01:21:30.192Z,10.92
2017-10-24T01:22:35.381Z,10.87
2017-10-24T01:23:41.170Z,10.88
2017-10-24T01:24:48.800Z,10.90
2017-10-24T01:25:54.326Z,10.91
2017-10-24T01:27:02.607Z,10.92
2017-10-24T01:28:08.367Z,10.92
2017-10-24T01:29:14.135Z,10.92
2017-10-24T01:30:19.564Z,10.92
2017-10-24T01:31:25.311Z,10.93
2017-10-24T01:32:34.372Z,10.94
2017-10-24T01:33:39.777Z,10.92
2017-10-24T01:34:45.002Z,10.96
2017-10-24T01:35:50.095Z,11.04
2017-10-24T01:36:55.884Z,11.06
2017-10-24T01:38:01.439Z,11.01
2017-10-24T01:39:06.832Z,11.00
2017-10-24T01:40:11.865Z,11.00
2017-10-24T01:41:17.288Z,11.07
2017-10-24T01:42:22.532Z,11.04
2017-10-24T01:43:27.740Z,11.03
2017-10-24T01:44:33.152Z,11.02
2017-10-24T01:45:39.734Z,11.01
2017-10-24T01:46:45.313Z,11.01
2017-10-24T01:47:50.660Z,11.02
2017-10-24T01:48:57.261Z,10.97
2017-10-24T01:50:02.315Z,10.95
2017-10-24T01:51:09.077Z,10.92
2017-10-24T01:52:14.367Z,10.92
2017-10-24T01:53:19.777Z,10.92
2017-10-24T01:54:25.158Z,10.94
2017-10-24T01:55:30.590Z,10.91
2017-10-24T01:56:35.842Z,10.93
2017-10-24T01:57:42.008Z,10.90
2017-10-24T01:58:47.341Z,10.87
2017-10-24T01:59:52.585Z,10.84
2017-10-24T02:00:58.714Z,10.86
2017-10-24T02:02:04.952Z,10.92
2017-10-24T02:03:10.129Z,10.88
2017-10-24T02:04:15.895Z,10.85
2017-10-24T02:05:21.718Z,10.86
2017-10-24T02:06:27.471Z,10.84
2017-10-24T02:07:32.881Z,10.83
2017-10-24T02:08:38.331Z,10.85
2017-10-24T02:09:43.764Z,10.88
2017-10-24T02:10:49.232Z,10.92
2017-10-24T02:11:54.639Z,10.95
2017-10-24T02:12:59.846Z,10.91
2017-10-24T02:14:05.273Z,10.88
2017-10-24T02:15:10.698Z,10.89
2017-10-24T02:16:16.120Z,10.94
2017-10-24T02:17:21.325Z,10.92
2017-10-24T02:18:26.768Z,10.92
2017-10-24T02:19:32.004Z,10.91
2017-10-24T02:20:37.816Z,10.90
2017-10-24T02:21:44.132Z,10.90
2017-10-24T02:22:49.555Z,10.89
2017-10-24T02:23:55.554Z,10.95
2017-10-24T02:25:01.664Z,10.95
2017-10-24T02:26:07.810Z,10.93
2017-10-24T02:27:13.903Z,10.93
2017-10-24T02:28:20.016Z,10.90
2017-10-24T02:29:26.208Z,10.92
2017-10-24T02:30:32.342Z,10.91
2017-10-24T02:31:38.347Z,10.89
2017-10-24T02:32:44.535Z,10.89
2017-10-24T02:33:50.665Z,10.87
2017-10-24T02:34:56.771Z,10.85
2017-10-24T02:36:02.920Z,10.86
2017-10-24T02:37:09.027Z,10.85
2017-10-24T02:38:14.824Z,10.89
2017-10-24T02:39:20.604Z,10.87
2017-10-24T02:40:26.724Z,10.87
2017-10-24T02:41:32.876Z,10.89
2017-10-24T02:42:39.168Z,10.85
2017-10-24T02:43:45.756Z,10.86
2017-10-24T02:44:51.613Z,10.88
2017-10-24T02:45:58.227Z,10.96
2017-10-24T02:47:04.377Z,10.95
2017-10-24T02:48:12.871Z,10.97
2017-10-24T02:49:18.659Z,10.94
2017-10-24T02:50:24.086Z,10.98
2017-10-24T02:51:29.489Z,10.97
2017-10-24T02:52:35.704Z,11.01
2017-10-24T02:53:41.513Z,10.96
2017-10-24T02:54:47.730Z,10.94
2017-10-24T02:55:53.657Z,10.97
2017-10-24T02:56:59.618Z,11.00
2017-10-24T02:58:08.952Z,10.99
2017-10-24T02:59:15.150Z,11.00
2017-10-24T03:00:20.945Z,11.00
2017-10-24T03:01:26.916Z,11.02
2017-10-24T03:02:33.068Z,11.07
2017-10-24T03:03:39.562Z,11.01
2017-10-24T03:04:45.709Z,11.00
2017-10-24T03:05:56.165Z,11.08
2017-10-24T03:07:02.337Z,11.00
2017-10-24T03:09:54.942Z,11.05
2017-10-24T03:12:46.832Z,10.98
2017-10-24T03:13:52.976Z,11.00
2017-10-24T03:14:58.965Z,11.00
2017-10-24T03:16:05.098Z,11.00
2017-10-24T03:17:12.109Z,11.00
2017-10-24T03:18:18.824Z,11.03
2017-10-24T03:19:25.007Z,11.03
2017-10-24T03:20:30.533Z,11.05
2017-10-24T03:21:37.534Z,11.08
2017-10-24T03:24:25.397Z,11.08
2017-10-24T03:25:31.324Z,11.01
2017-10-24T03:26:37.718Z,11.00
2017-10-24T03:27:43.817Z,11.01
2017-10-24T03:28:50.652Z,11.02
2017-10-24T03:29:56.770Z,11.03
2017-10-24T03:31:02.892Z,11.03
2017-10-24T03:32:09.082Z,11.04
2017-10-24T03:33:15.206Z,11.07
2017-10-24T03:34:21.337Z,11.11
2017-10-24T03:35:27.476Z,11.08
2017-10-24T03:36:33.625Z,11.09
2017-10-24T03:37:39.739Z,11.08
2017-10-24T03:38:45.863Z,11.09
2017-10-24T03:39:52.073Z,11.11
2017-10-24T03:40:58.201Z,11.11
2017-10-24T03:42:04.370Z,11.19
2017-10-24T03:43:10.488Z,11.13
2017-10-24T03:44:16.636Z,11.16
2017-10-24T03:45:22.800Z,11.14
2017-10-24T03:46:28.988Z,11.10
2017-10-24T03:47:35.135Z,11.13
2017-10-24T03:48:41.260Z,11.17
2017-10-24T03:49:48.810Z,11.14
2017-10-24T03:50:56.806Z,11.13
2017-10-24T03:52:26.761Z,11.13
2017-10-24T03:53:35.038Z,11.17
2017-10-24T03:54:54.261Z,11.17
2017-10-24T03:56:03.309Z,11.13
2017-10-24T03:57:12.733Z,11.24
2017-10-24T03:58:20.004Z,11.16
2017-10-24T03:59:27.861Z,11.09
2017-10-24T04:00:35.479Z,11.05
2017-10-24T04:01:44.119Z,11.10
2017-10-24T04:02:54.837Z,11.14
2017-10-24T04:04:02.521Z,11.20
2017-10-24T04:05:09.887Z,11.15
2017-10-24T04:06:19.022Z,11.20
2017-10-24T04:07:29.592Z,11.15
2017-10-24T04:08:38.369Z,11.07
2017-10-24T04:09:49.155Z,11.02
2017-10-24T04:10:59.606Z,11.04
2017-10-24T04:12:07.440Z,11.06
2017-10-24T04:13:16.032Z,11.09
2017-10-24T04:14:24.609Z,11.04
2017-10-24T04:15:32.916Z,11.04
2017-10-24T04:16:40.581Z,11.01
2017-10-24T04:17:48.418Z,11.00
2017-10-24T04:18:54.546Z,11.01
2017-10-24T04:20:00.599Z,11.06
2017-10-24T04:21:06.848Z,11.05
2017-10-24T04:22:13.096Z,11.04
2017-10-24T04:23:23.619Z,11.08
2017-10-24T04:24:32.962Z,11.08
2017-10-24T04:25:40.787Z,11.09
2017-10-24T04:26:46.841Z,11.07
2017-10-24T04:27:53.197Z,11.09
2017-10-24T04:28:59.145Z,11.08
2017-10-24T04:30:05.018Z,11.06
2017-10-24T04:31:10.770Z,11.08
2017-10-24T04:32:16.968Z,11.08
2017-10-24T04:33:22.989Z,11.12
2017-10-24T04:34:29.169Z,11.10
2017-10-24T04:35:41.761Z,11.20
2017-10-24T04:36:47.910Z,11.21
2017-10-24T04:37:55.333Z,11.13
2017-10-24T04:39:06.739Z,11.09
2017-10-24T04:40:13.961Z,11.05
2017-10-24T04:41:24.707Z,11.03
2017-10-24T04:42:34.587Z,11.06
2017-10-24T04:43:42.847Z,11.02
2017-10-24T04:44:51.182Z,10.99
2017-10-24T04:46:03.170Z,10.97
2017-10-24T04:47:18.433Z,10.97
2017-10-24T04:48:30.467Z,11.00
2017-10-24T04:50:02.334Z,10.97
2017-10-24T04:51:28.943Z,10.94
2017-10-24T04:52:44.475Z,10.94
2017-10-24T04:55:59.170Z,10.97
2017-10-24T04:57:17.331Z,10.96
2017-10-24T05:00:51.411Z,10.91
2017-10-24T05:47:31.946Z,10.27
2017-10-24T05:48:38.038Z,10.27
2017-10-24T05:49:44.186Z,10.26
2017-10-24T05:50:50.087Z,10.28
2017-10-24T05:51:57.212Z,10.24
2017-10-24T05:53:06.117Z,10.29
2017-10-24T05:54:12.285Z,10.27
2017-10-24T05:55:19.511Z,10.26
2017-10-24T05:56:26.219Z,10.23
2017-10-24T05:57:32.300Z,10.21
2017-10-24T05:58:38.434Z,10.17
2017-10-24T05:59:44.737Z,10.16
2017-10-24T06:00:50.877Z,10.15
2017-10-24T06:01:57.012Z,10.16
2017-10-24T06:03:03.166Z,10.17
2017-10-24T06:04:09.111Z,10.18
2017-10-24T06:05:15.274Z,10.17
2017-10-24T06:06:21.506Z,10.16
2017-10-24T06:07:27.631Z,10.13
2017-10-24T06:08:33.753Z,10.11
2017-10-24T06:09:39.896Z,10.09
2017-10-24T06:10:46.035Z,10.06
2017-10-24T06:11:52.163Z,10.06
2017-10-24T06:12:58.314Z,10.11
2017-10-24T06:14:04.576Z,10.11
2017-10-24T06:15:10.948Z,10.05
2017-10-24T06:16:17.046Z,10.08
2017-10-24T06:17:22.977Z,10.09
2017-10-24T06:18:29.346Z,10.09
